Time;durP1;ratioP1;P1;durP2;ratioP2;P2;SDS_P1;SDS_P2;PMS_P1;PMS_P2;Temp;Humidity;BMP_temperature;BMP_pressure;BME280_temperature;BME280_humidity;BME280_pressure;Samples;Min_cycle;Max_cycle;Signal;HPM_P1;HPM_P2
2022/05/30 00:01:22;;;;;;;;;1.67;1.67;;;;;-147.17;100.00;59696.56;5014695;28;10485;-66
2022/05/30 00:03:48;;;;;;;;;2.50;2.00;;;;;-147.17;100.00;59696.56;5009074;28;8794;-66
2022/05/30 00:06:18;;;;;;;;;2.50;2.50;;;;;-147.17;100.00;59696.56;5003263;28;9553;-65
2022/05/30 00:08:43;;;;;;;;;3.75;2.00;;;;;-147.17;100.00;59696.56;5006710;28;11392;-65
2022/05/30 00:11:12;;;;;;;;;2.00;2.00;;;;;-147.17;100.00;59696.56;5003853;28;9762;-66
2022/05/30 00:13:38;;;;;;;;;2.25;2.25;;;;;-147.17;100.00;59696.56;5005504;28;8794;-66
2022/05/30 00:16:06;;;;;;;;;2.50;2.50;;;;;-147.17;100.00;59696.56;5007922;28;9584;-66
2022/05/30 00:18:32;;;;;;;;;2.25;2.00;;;;;-147.17;100.00;59696.56;5007508;28;10427;-66
2022/05/30 00:20:58;;;;;;;;;2.00;2.00;;;;;-147.17;100.00;59696.56;5005947;28;9631;-66
2022/05/30 00:23:23;;;;;;;;;2.67;2.67;;;;;-147.17;100.00;59696.56;5006991;28;8848;-66
2022/05/30 00:25:49;;;;;;;;;2.00;2.00;;;;;-147.17;100.00;59696.56;5008974;28;8805;-66
2022/05/30 00:28:16;;;;;;;;;3.00;3.00;;;;;-147.17;100.00;59696.56;5006911;28;8891;-66
2022/05/30 00:30:43;;;;;;;;;2.00;2.00;;;;;-147.17;100.00;59696.56;5008475;28;8831;-66
2022/05/30 00:33:08;;;;;;;;;3.00;2.00;;;;;-147.17;100.00;59696.56;5003882;28;9614;-66
2022/05/30 00:35:34;;;;;;;;;3.25;3.25;;;;;-147.17;100.00;59696.56;5005790;28;10550;-66
2022/05/30 00:37:59;;;;;;;;;3.25;2.25;;;;;-147.17;100.00;59696.56;5008460;28;8793;-65
2022/05/30 00:40:25;;;;;;;;;3.00;3.00;;;;;-147.17;100.00;59696.56;5006504;28;8881;-65
2022/05/30 00:42:50;;;;;;;;;3.75;3.75;;;;;-147.17;100.00;59696.56;5006991;28;9595;-65
2022/05/30 00:45:16;;;;;;;;;3.75;3.00;;;;;-147.17;100.00;59696.56;5008727;28;8859;-66
2022/05/30 00:47:41;;;;;;;;;2.50;2.25;;;;;-147.17;100.00;59696.56;5008191;28;8802;-65
2022/05/30 00:50:08;;;;;;;;;3.00;3.00;;;;;-147.17;100.00;59696.56;5008872;28;8841;-65
2022/05/30 00:52:39;;;;;;;;;4.00;4.00;;;;;-147.17;100.00;59696.56;4989617;28;8789;-65
2022/05/30 00:55:12;;;;;;;;;4.00;4.00;;;;;-147.17;100.00;59696.56;5006770;28;9854;-66
2022/05/30 00:57:39;;;;;;;;;4.25;4.25;;;;;-147.17;100.00;59696.56;5008917;28;9920;-66
2022/05/30 01:00:10;;;;;;;;;4.00;3.25;;;;;-147.17;100.00;59696.56;5005409;28;9997;-66
2022/05/30 01:02:39;;;;;;;;;2.75;2.75;;;;;-147.17;100.00;59696.56;5009336;28;10093;-65
2022/05/30 01:07:52;;;;;;;;;4.00;4.00;;;;;-147.17;100.00;59696.56;5011943;28;9796;-66
2022/05/30 01:10:21;;;;;;;;;4.50;3.75;;;;;-147.17;100.00;59696.56;5008520;28;10078;-66
2022/05/30 01:12:53;;;;;;;;;4.25;4.25;;;;;-147.17;100.00;59696.56;5010162;28;9961;-65
2022/05/30 01:15:22;;;;;;;;;3.00;3.00;;;;;-147.17;100.00;59696.56;5013014;28;9668;-66
2022/05/30 01:17:54;;;;;;;;;5.00;4.50;;;;;-147.17;100.00;59696.56;5009950;28;9630;-66
2022/05/30 01:20:31;;;;;;;;;3.00;3.00;;;;;-147.17;100.00;59696.56;5012707;28;9735;-66
2022/05/30 01:23:14;;;;;;;;;3.00;3.00;;;;;-147.17;100.00;59696.56;5010167;28;9712;-66
2022/05/30 01:25:58;;;;;;;;;5.00;4.00;;;;;-147.17;100.00;59696.56;5011677;28;9969;-67
2022/05/30 01:28:45;;;;;;;;;5.50;5.00;;;;;-147.17;100.00;59696.56;5009258;28;9751;-66
2022/05/30 01:31:11;;;;;;;;;2.75;2.75;;;;;-147.17;100.00;59696.56;5010177;28;9749;-66
2022/05/30 01:33:37;;;;;;;;;2.00;1.00;;;;;-147.17;100.00;59696.56;5009208;28;9784;-66
2022/05/30 01:36:03;;;;;;;;;4.50;3.75;;;;;-147.17;100.00;59696.56;5010132;28;9653;-66
2022/05/30 01:38:28;;;;;;;;;4.00;4.00;;;;;-147.17;100.00;59696.56;5009719;28;8829;-66
2022/05/30 01:40:55;;;;;;;;;3.50;3.50;;;;;-147.17;100.00;59696.56;5011023;28;8915;-66
2022/05/30 01:43:21;;;;;;;;;3.00;3.00;;;;;-147.17;100.00;59696.56;5010507;28;8815;-65
2022/05/30 01:45:46;;;;;;;;;5.00;4.00;;;;;-147.17;100.00;59696.56;5010088;28;9630;-65
2022/05/30 01:48:12;;;;;;;;;3.75;3.75;;;;;-147.17;100.00;59696.56;5009294;28;8809;-65
2022/05/30 01:50:37;;;;;;;;;5.25;5.25;;;;;-147.17;100.00;59696.56;5008638;28;8813;-65
2022/05/30 01:53:03;;;;;;;;;5.75;5.75;;;;;-147.17;100.00;59696.56;5010544;28;8805;-65
2022/05/30 01:55:28;;;;;;;;;5.25;5.25;;;;;-147.17;100.00;59696.56;5009772;28;8825;-66
2022/05/30 01:57:53;;;;;;;;;5.00;5.00;;;;;-147.17;100.00;59696.56;5008213;28;8845;-65
2022/05/30 02:00:19;;;;;;;;;5.75;5.75;;;;;-147.17;100.00;59696.56;4993003;28;8903;-65
2022/05/30 02:02:44;;;;;;;;;6.00;6.00;;;;;-147.17;100.00;59696.56;5012976;28;8809;-66
2022/05/30 02:05:11;;;;;;;;;5.00;4.75;;;;;-147.17;100.00;59696.56;5009330;28;8816;-67
2022/05/30 02:07:36;;;;;;;;;4.50;4.00;;;;;-147.17;100.00;59696.56;5006743;28;8841;-66
2022/05/30 02:10:02;;;;;;;;;5.00;5.00;;;;;-147.17;100.00;59696.56;5009421;28;9970;-65
2022/05/30 02:12:28;;;;;;;;;3.25;3.25;;;;;-147.17;100.00;59696.56;5008921;28;8808;-66
2022/05/30 02:14:53;;;;;;;;;3.00;3.00;;;;;-147.17;100.00;59696.56;5010249;28;10131;-66
2022/05/30 02:17:18;;;;;;;;;4.00;4.00;;;;;-147.17;100.00;59696.56;5009111;28;8797;-65
2022/05/30 02:19:45;;;;;;;;;4.75;4.00;;;;;-147.17;100.00;59696.56;5008200;28;9543;-65
2022/05/30 02:22:13;;;;;;;;;3.75;3.75;;;;;-147.17;100.00;59696.56;5009045;28;8805;-66
2022/05/30 02:24:39;;;;;;;;;4.00;4.00;;;;;-147.17;100.00;59696.56;4991740;28;9849;-65
2022/05/30 02:27:06;;;;;;;;;3.00;3.00;;;;;-147.17;100.00;59696.56;5009770;28;9996;-65
2022/05/30 02:29:32;;;;;;;;;5.00;5.00;;;;;-147.17;100.00;59696.56;5008411;28;8817;-65
2022/05/30 02:31:57;;;;;;;;;6.50;5.00;;;;;-147.17;100.00;59696.56;5008940;28;10029;-66
2022/05/30 02:37:06;;;;;;;;;5.75;5.00;;;;;-147.17;100.00;59696.56;5001570;28;8809;-66
2022/05/30 02:39:32;;;;;;;;;4.00;4.00;;;;;-147.17;100.00;59696.56;5009386;28;9770;-65
2022/05/30 02:41:58;;;;;;;;;5.00;4.00;;;;;-147.17;100.00;59696.56;5008668;28;8923;-66
2022/05/30 02:44:25;;;;;;;;;3.75;3.50;;;;;-147.17;100.00;59696.56;5009875;28;8825;-66
2022/05/30 02:46:54;;;;;;;;;7.00;5.75;;;;;-147.17;100.00;59696.56;5010138;28;8801;-66
2022/05/30 02:49:20;;;;;;;;;4.00;4.00;;;;;-147.17;100.00;59696.56;5008324;28;9957;-66
2022/05/30 02:51:46;;;;;;;;;4.25;4.25;;;;;-147.17;100.00;59696.56;5007743;28;9873;-66
2022/05/30 02:54:12;;;;;;;;;6.75;5.00;;;;;-147.17;100.00;59696.56;5008000;28;9924;-66
2022/05/30 02:56:39;;;;;;;;;5.00;5.00;;;;;-147.17;100.00;59696.56;5009141;28;8887;-66
2022/05/30 02:59:05;;;;;;;;;5.00;4.75;;;;;-147.17;100.00;59696.56;5008893;28;10094;-64
2022/05/30 03:01:32;;;;;;;;;5.00;5.00;;;;;-147.17;100.00;59696.56;5017293;28;9926;-65
2022/05/30 03:03:59;;;;;;;;;6.25;5.50;;;;;-147.17;100.00;59696.56;5009282;28;11406;-66
2022/05/30 03:06:25;;;;;;;;;5.25;5.25;;;;;-147.17;100.00;59696.56;5008399;28;9919;-65
2022/05/30 03:08:51;;;;;;;;;8.00;6.00;;;;;-147.17;100.00;59696.56;5009509;28;9788;-66
2022/05/30 03:11:17;;;;;;;;;5.00;4.00;;;;;-147.17;100.00;59696.56;5009506;28;9879;-65
2022/05/30 03:13:42;;;;;;;;;4.00;4.00;;;;;-147.17;100.00;59696.56;5006849;28;8805;-67
2022/05/30 03:16:08;;;;;;;;;5.75;5.00;;;;;-147.17;100.00;59696.56;5012208;28;9634;-66
2022/05/30 03:18:33;;;;;;;;;5.25;5.25;;;;;-147.17;100.00;59696.56;5008192;28;8851;-65
2022/05/30 03:20:59;;;;;;;;;4.50;4.00;;;;;-147.17;100.00;59696.56;5004096;28;8878;-66
2022/05/30 03:23:24;;;;;;;;;5.00;4.50;;;;;-147.17;100.00;59696.56;5010877;28;8916;-64
2022/05/30 03:25:50;;;;;;;;;5.25;4.75;;;;;-147.17;100.00;59696.56;5009702;28;9548;-65
2022/05/30 03:28:15;;;;;;;;;4.50;4.50;;;;;-147.17;100.00;59696.56;5009650;28;8833;-66
2022/05/30 03:30:41;;;;;;;;;4.75;4.75;;;;;-147.17;100.00;59696.56;5006548;28;8864;-65
2022/05/30 03:33:08;;;;;;;;;5.00;5.00;;;;;-147.17;100.00;59696.56;5009864;28;8802;-65
2022/05/30 03:35:35;;;;;;;;;4.50;4.50;;;;;-147.17;100.00;59696.56;4991409;28;8909;-65
2022/05/30 03:38:01;;;;;;;;;6.50;6.50;;;;;-147.17;100.00;59696.56;5003387;28;9925;-66
2022/05/30 03:40:26;;;;;;;;;7.50;5.00;;;;;-147.17;100.00;59696.56;5005276;28;10099;-65
2022/05/30 03:42:52;;;;;;;;;4.75;4.75;;;;;-147.17;100.00;59696.56;5007757;28;8843;-65
2022/05/30 03:45:18;;;;;;;;;5.50;5.50;;;;;-147.17;100.00;59696.56;5009773;28;8906;-65
2022/05/30 03:47:45;;;;;;;;;4.50;4.50;;;;;-147.17;100.00;59696.56;4999166;28;9854;-66
2022/05/30 03:50:14;;;;;;;;;8.00;7.00;;;;;-147.17;100.00;59696.56;5008517;28;8794;-65
2022/05/30 03:52:40;;;;;;;;;8.25;7.50;;;;;-147.17;100.00;59696.56;5008163;28;9958;-65
2022/05/30 03:55:11;;;;;;;;;6.50;6.00;;;;;-147.17;100.00;59696.56;5005371;28;10016;-66
2022/05/30 03:57:37;;;;;;;;;5.75;5.50;;;;;-147.17;100.00;59696.56;5008086;28;8797;-65
2022/05/30 04:00:03;;;;;;;;;5.00;4.25;;;;;-147.17;100.00;59696.56;5007088;28;10220;-66
2022/05/30 04:02:28;;;;;;;;;5.00;5.00;;;;;-147.17;100.00;59696.56;5010973;28;8809;-65
2022/05/30 04:04:53;;;;;;;;;6.25;6.25;;;;;-147.17;100.00;59696.56;5007385;28;8933;-66
2022/05/30 04:07:19;;;;;;;;;7.75;6.50;;;;;-147.17;100.00;59696.56;4992092;28;8979;-66
2022/05/30 04:09:44;;;;;;;;;8.50;7.50;;;;;-147.17;100.00;59696.56;5007445;28;8809;-66
2022/05/30 04:12:10;;;;;;;;;9.00;8.00;;;;;-147.17;100.00;59696.56;5006030;28;8789;-66
2022/05/30 04:14:35;;;;;;;;;8.00;8.00;;;;;-147.17;100.00;59696.56;5005758;28;8805;-65
2022/05/30 04:17:01;;;;;;;;;6.25;5.50;;;;;-147.17;100.00;59696.56;5004609;28;8852;-66
2022/05/30 04:19:26;;;;;;;;;7.50;7.25;;;;;-147.17;100.00;59696.56;5007280;28;8821;-66
2022/05/30 04:21:51;;;;;;;;;8.25;6.50;;;;;-147.17;100.00;59696.56;5007618;28;8914;-67
2022/05/30 04:24:17;;;;;;;;;8.50;8.00;;;;;-147.17;100.00;59696.56;5009045;28;8844;-65
2022/05/30 04:26:44;;;;;;;;;8.50;7.50;;;;;-147.17;100.00;59696.56;5008853;28;8817;-65
2022/05/30 04:29:09;;;;;;;;;9.75;8.00;;;;;-147.17;100.00;59696.56;5006130;28;8769;-66
2022/05/30 04:31:34;;;;;;;;;9.00;8.00;;;;;-147.17;100.00;59696.56;5006921;28;10100;-65
2022/05/30 04:34:00;;;;;;;;;7.00;7.00;;;;;-147.17;100.00;59696.56;5007522;28;8820;-65
2022/05/30 04:36:26;;;;;;;;;6.00;6.00;;;;;-147.17;100.00;59696.56;5008222;28;8935;-65
2022/05/30 04:38:51;;;;;;;;;8.00;6.25;;;;;-147.17;100.00;59696.56;5009109;28;8808;-66
2022/05/30 04:41:17;;;;;;;;;9.00;9.00;;;;;-147.17;100.00;59696.56;5009810;28;9184;-66
2022/05/30 04:43:42;;;;;;;;;8.25;6.25;;;;;-147.17;100.00;59696.56;5005445;28;8825;-65
2022/05/30 04:46:25;;;;;;;;;10.00;9.50;;;;;-147.17;100.00;59696.56;5010979;28;8844;-66
2022/05/30 04:48:51;;;;;;;;;7.75;6.00;;;;;-147.17;100.00;59696.56;5010263;28;8813;-65
2022/05/30 04:51:16;;;;;;;;;9.00;8.00;;;;;-147.17;100.00;59696.56;5018351;28;10384;-66
2022/05/30 04:53:42;;;;;;;;;9.00;8.50;;;;;-147.17;100.00;59696.56;5015813;28;9544;-66
2022/05/30 04:56:07;;;;;;;;;6.00;6.00;;;;;-147.17;100.00;59696.56;5012299;28;8841;-65
2022/05/30 04:58:35;;;;;;;;;9.00;9.00;;;;;-147.17;100.00;59696.56;5013060;28;8797;-65
2022/05/30 05:01:04;;;;;;;;;7.75;6.75;;;;;-147.17;100.00;59696.56;5012638;28;8815;-65
2022/05/30 05:03:30;;;;;;;;;10.25;9.50;;;;;-147.17;100.00;59696.56;5007877;28;10194;-66
2022/05/30 05:06:18;;;;;;;;;8.00;8.00;;;;;-147.17;100.00;59696.56;5011158;28;10067;-65
2022/05/30 05:08:53;;;;;;;;;7.75;7.75;;;;;-147.17;100.00;59696.56;5003779;28;10165;-65
2022/05/30 05:11:29;;;;;;;;;13.75;10.00;;;;;-147.17;100.00;59696.56;5012323;28;10802;-67
2022/05/30 05:13:55;;;;;;;;;12.00;11.25;;;;;-147.17;100.00;59696.56;5008766;28;10130;-65
2022/05/30 05:16:24;;;;;;;;;8.25;8.25;;;;;-147.17;100.00;59696.56;5007765;28;9943;-66
2022/05/30 05:18:49;;;;;;;;;11.00;10.00;;;;;-147.17;100.00;59696.56;5007643;28;9902;-65
2022/05/30 05:21:29;;;;;;;;;7.75;7.50;;;;;-147.17;100.00;59696.56;5010109;28;9786;-65
2022/05/30 05:23:54;;;;;;;;;8.67;7.00;;;;;-147.17;100.00;59696.56;5009804;28;8805;-66
2022/05/30 05:26:21;;;;;;;;;8.67;7.67;;;;;-147.17;100.00;59696.56;5010816;28;9628;-64
2022/05/30 05:28:47;;;;;;;;;7.33;7.00;;;;;-147.17;100.00;59696.56;5007200;28;8829;-65
2022/05/30 05:31:25;;;;;;;;;10.50;10.50;;;;;-147.17;100.00;59696.56;5007349;28;9569;-65
2022/05/30 05:33:52;;;;;;;;;8.67;8.00;;;;;-147.17;100.00;59696.56;5003475;28;9580;-65
2022/05/30 05:36:23;;;;;;;;;5.00;5.00;;;;;-147.17;100.00;59696.56;5007599;28;9366;-66
2022/05/30 05:38:49;;;;;;;;;7.00;7.00;;;;;-147.17;100.00;59696.56;4993204;28;9499;-65
2022/05/30 05:41:14;;;;;;;;;9.00;8.67;;;;;-147.17;100.00;59696.56;5014788;28;9271;-66
2022/05/30 05:43:40;;;;;;;;;7.33;6.67;;;;;-147.17;100.00;59696.56;5010419;28;9193;-65
2022/05/30 05:46:12;;;;;;;;;7.67;7.67;;;;;-147.17;100.00;59696.56;5013268;28;8809;-65
2022/05/30 05:48:37;;;;;;;;;8.00;8.00;;;;;-147.17;100.00;59696.56;5012409;28;8849;-66
2022/05/30 05:51:04;;;;;;;;;7.67;7.00;;;;;-147.17;100.00;59696.56;5011446;28;10067;-65
2022/05/30 05:53:29;;;;;;;;;6.33;6.00;;;;;-147.17;100.00;59696.56;5011063;28;8795;-65
2022/05/30 05:55:54;;;;;;;;;6.00;6.00;;;;;-147.17;100.00;59696.56;5009226;28;9068;-65
2022/05/30 05:58:20;;;;;;;;;8.00;8.00;;;;;-147.17;100.00;59696.56;5014217;28;8865;-66
2022/05/30 06:00:45;;;;;;;;;8.00;7.33;;;;;-147.17;100.00;59696.56;5010144;28;8874;-66
2022/05/30 06:03:10;;;;;;;;;8.00;7.00;;;;;-147.17;100.00;59696.56;5011306;28;8833;-66
2022/05/30 06:05:39;;;;;;;;;7.33;5.00;;;;;-147.17;100.00;59696.56;5012998;28;9540;-66
2022/05/30 06:08:10;;;;;;;;;7.67;7.00;;;;;-147.17;100.00;59696.56;5013867;28;9588;-67
2022/05/30 06:11:04;;;;;;;;;7.00;7.00;;;;;-147.17;100.00;59696.56;5022633;28;8990;-66
2022/05/30 06:13:21;;;;;;;;;6.67;6.00;;;;;-147.17;100.00;59696.56;5005298;28;9149;-67
2022/05/30 06:15:46;;;;;;;;;7.33;7.33;;;;;-147.17;100.00;59696.56;5005323;28;8924;-66
2022/05/30 06:18:12;;;;;;;;;6.00;6.00;;;;;-147.17;100.00;59696.56;5008080;28;8841;-66
2022/05/30 06:20:37;;;;;;;;;9.33;6.33;;;;;-147.17;100.00;59696.56;5011793;28;8838;-66
2022/05/30 06:23:02;;;;;;;;;6.00;6.00;;;;;-147.17;100.00;59696.56;5009527;28;8868;-65
2022/05/30 06:25:28;;;;;;;;;8.33;8.33;;;;;-147.17;100.00;59696.56;4992823;28;9551;-66
2022/05/30 06:27:53;;;;;;;;;8.33;6.00;;;;;-147.17;100.00;59696.56;5004552;28;8939;-66
2022/05/30 06:30:18;;;;;;;;;8.00;7.67;;;;;-147.17;100.00;59696.56;5007626;28;8923;-66
2022/05/30 06:32:44;;;;;;;;;8.33;7.00;;;;;-147.17;100.00;59696.56;5003798;28;8941;-66
2022/05/30 06:35:09;;;;;;;;;7.33;7.00;;;;;-147.17;100.00;59696.56;5004542;28;8834;-64
2022/05/30 06:37:35;;;;;;;;;8.00;8.00;;;;;-147.17;100.00;59696.56;4998844;28;8805;-66
2022/05/30 06:40:00;;;;;;;;;7.67;7.67;;;;;-147.17;100.00;59696.56;5008025;28;8835;-65
2022/05/30 06:42:26;;;;;;;;;9.00;8.00;;;;;-147.17;100.00;59696.56;5007281;28;8809;-66
2022/05/30 06:44:53;;;;;;;;;5.67;5.67;;;;;-147.17;100.00;59696.56;5005513;28;8844;-66
2022/05/30 06:47:19;;;;;;;;;9.67;9.67;;;;;-147.17;100.00;59696.56;5006183;28;8932;-65
2022/05/30 06:49:45;;;;;;;;;4.67;4.67;;;;;-147.17;100.00;59696.56;5007157;28;9026;-66
2022/05/30 06:52:12;;;;;;;;;7.75;7.50;;;;;-147.17;100.00;59696.56;5009676;28;8793;-65
2022/05/30 06:54:38;;;;;;;;;7.25;6.25;;;;;-147.17;100.00;59696.56;5004437;28;8799;-65
2022/05/30 06:59:48;;;;;;;;;9.00;7.00;;;;;-147.17;100.00;59696.56;5008455;28;8778;-66
2022/05/30 07:02:15;;;;;;;;;3.67;3.00;;;;;-147.17;100.00;59696.56;5009106;28;8840;-66
2022/05/30 07:04:41;;;;;;;;;7.25;7.00;;;;;-147.17;100.00;59696.56;5008871;28;8766;-65
2022/05/30 07:07:07;;;;;;;;;11.33;10.33;;;;;-147.17;100.00;59696.56;5008040;28;8876;-65
2022/05/30 07:09:33;;;;;;;;;6.50;6.00;;;;;-147.17;100.00;59696.56;5006897;28;8920;-65
2022/05/30 07:11:59;;;;;;;;;4.25;4.00;;;;;-147.17;100.00;59696.56;5007240;28;8911;-64
2022/05/30 07:14:25;;;;;;;;;9.33;8.00;;;;;-147.17;100.00;59696.56;5008785;28;8805;-64
2022/05/30 07:16:50;;;;;;;;;5.67;5.67;;;;;-147.17;100.00;59696.56;5005849;28;8935;-64
2022/05/30 07:19:17;;;;;;;;;6.00;4.00;;;;;-147.17;100.00;59696.56;4989606;28;8845;-65
2022/05/30 07:21:42;;;;;;;;;5.75;5.50;;;;;-147.17;100.00;59696.56;5007315;28;8847;-65
2022/05/30 07:24:10;;;;;;;;;5.00;4.33;;;;;-147.17;100.00;59696.56;4989595;28;8837;-65
2022/05/30 07:26:36;;;;;;;;;4.75;4.75;;;;;-147.17;100.00;59696.56;5006995;28;8801;-65
2022/05/30 07:29:01;;;;;;;;;6.00;5.00;;;;;-147.17;100.00;59696.56;5004339;28;9738;-65
2022/05/30 07:31:29;;;;;;;;;5.00;5.00;;;;;-147.17;100.00;59696.56;5018609;28;8916;-65
2022/05/30 07:33:55;;;;;;;;;5.00;5.00;;;;;-147.17;100.00;59696.56;5007659;28;8781;-65
2022/05/30 07:36:27;;;;;;;;;6.00;5.00;;;;;-147.17;100.00;59696.56;5005779;28;8777;-65
2022/05/30 07:38:56;;;;;;;;;5.75;5.75;;;;;-147.17;100.00;59696.56;5004499;28;8838;-64
2022/05/30 07:41:25;;;;;;;;;6.00;5.75;;;;;-147.17;100.00;59696.56;5007929;28;9606;-65
2022/05/30 07:43:50;;;;;;;;;6.00;6.00;;;;;-147.17;100.00;59696.56;5007644;28;8832;-63
2022/05/30 07:46:18;;;;;;;;;6.33;5.33;;;;;-147.17;100.00;59696.56;5004956;28;8817;-69
2022/05/30 07:48:44;;;;;;;;;5.25;4.50;;;;;-147.17;100.00;59696.56;5008633;28;8793;-70
2022/05/30 07:51:12;;;;;;;;;5.50;5.00;;;;;-147.17;100.00;59696.56;5006947;28;8810;-67
2022/05/30 07:53:39;;;;;;;;;5.67;5.67;;;;;-147.17;100.00;59696.56;5006403;28;8812;-70
2022/05/30 07:56:08;;;;;;;;;5.00;4.67;;;;;-147.17;100.00;59696.56;5008755;28;8999;-68
2022/05/30 07:58:33;;;;;;;;;4.00;4.00;;;;;-147.17;100.00;59696.56;5006743;28;8864;-70
2022/05/30 08:00:59;;;;;;;;;8.33;8.33;;;;;-147.17;100.00;59696.56;5011807;28;8890;-70
2022/05/30 08:03:26;;;;;;;;;8.33;8.33;;;;;-147.17;100.00;59696.56;5002754;28;8799;-66
2022/05/30 08:06:02;;;;;;;;;3.75;3.75;;;;;-147.17;100.00;59696.56;5008121;28;8777;-67
2022/05/30 08:08:27;;;;;;;;;3.50;3.50;;;;;-147.17;100.00;59696.56;4990977;28;8840;-70
2022/05/30 08:10:53;;;;;;;;;4.33;4.33;;;;;-147.17;100.00;59696.56;5008460;28;8821;-70
2022/05/30 08:13:18;;;;;;;;;4.33;4.00;;;;;-147.17;100.00;59696.56;5008923;28;9543;-69
2022/05/30 08:15:44;;;;;;;;;3.00;2.00;;;;;-147.17;100.00;59696.56;4989101;28;10028;-69
2022/05/30 08:18:14;;;;;;;;;3.00;3.00;;;;;-147.17;100.00;59696.56;5008283;28;8831;-69
2022/05/30 08:20:40;;;;;;;;;3.50;3.00;;;;;-147.17;100.00;59696.56;5007315;28;8809;-68
2022/05/30 08:23:06;;;;;;;;;3.00;3.00;;;;;-147.17;100.00;59696.56;5007183;28;8841;-69
2022/05/30 08:25:31;;;;;;;;;3.00;3.00;;;;;-147.17;100.00;59696.56;5007995;28;9006;-68
2022/05/30 08:27:57;;;;;;;;;1.67;1.67;;;;;-147.17;100.00;59696.56;5008858;28;8825;-69
2022/05/30 08:30:22;;;;;;;;;2.00;2.00;;;;;-147.17;100.00;59696.56;5008317;28;8813;-69
2022/05/30 08:32:48;;;;;;;;;3.00;2.67;;;;;-147.17;100.00;59696.56;5004023;28;8843;-71
2022/05/30 08:35:16;;;;;;;;;2.67;2.33;;;;;-147.17;100.00;59696.56;5008043;28;8801;-69
2022/05/30 08:37:42;;;;;;;;;2.50;2.50;;;;;-147.17;100.00;59696.56;5005991;28;11157;-70
2022/05/30 08:43:15;;;;;;;;;2.75;2.75;;;;;-147.17;100.00;59696.56;4984670;28;8800;-70
2022/05/30 08:45:42;;;;;;;;;3.00;3.00;;;;;-147.17;100.00;59696.56;5007721;28;8882;-69
2022/05/30 08:48:14;;;;;;;;;4.00;4.00;;;;;-147.17;100.00;59696.56;5008664;28;8782;-69
2022/05/30 08:50:51;;;;;;;;;3.00;2.00;;;;;-147.17;100.00;59696.56;5007750;28;8883;-69
2022/05/30 08:53:48;;;;;;;;;4.00;4.00;;;;;-147.17;100.00;59696.56;5006568;28;8891;-68
2022/05/30 08:56:33;;;;;;;;;3.00;3.00;;;;;-147.17;100.00;59696.56;5007554;28;9519;-69
2022/05/30 08:59:17;;;;;;;;;2.00;2.00;;;;;-147.17;100.00;59696.56;5008918;28;8812;-68
2022/05/30 09:01:48;;;;;;;;;2.00;1.75;;;;;-147.17;100.00;59696.56;5006201;28;8817;-68
2022/05/30 09:04:51;;;;;;;;;2.50;2.00;;;;;-147.17;100.00;59696.56;5007525;28;8785;-68
2022/05/30 09:07:24;;;;;;;;;3.00;2.67;;;;;-147.17;100.00;59696.56;5010446;28;8769;-67
2022/05/30 09:09:55;;;;;;;;;1.75;1.25;;;;;-147.17;100.00;59696.56;5006593;28;8778;-70
2022/05/30 09:12:36;;;;;;;;;1.75;1.75;;;;;-147.17;100.00;59696.56;5004402;28;8852;-67
2022/05/30 09:15:15;;;;;;;;;4.00;4.00;;;;;-147.17;100.00;59696.56;4987588;28;8917;-67
2022/05/30 09:17:40;;;;;;;;;2.00;2.00;;;;;-147.17;100.00;59696.56;4991077;28;8815;-67
2022/05/30 09:20:09;;;;;;;;;1.00;1.00;;;;;-147.17;100.00;59696.56;5007454;28;8829;-67
2022/05/30 09:22:36;;;;;;;;;2.00;2.00;;;;;-147.17;100.00;59696.56;5007090;28;8797;-67
2022/05/30 09:27:46;;;;;;;;;2.00;2.00;;;;;-147.17;100.00;59696.56;4983775;28;8809;-68
2022/05/30 09:30:18;;;;;;;;;2.33;2.33;;;;;-147.17;100.00;59696.56;5007218;28;9626;-69
2022/05/30 09:32:54;;;;;;;;;1.00;0.75;;;;;-147.17;100.00;59696.56;5012025;28;8793;-69
2022/05/30 09:35:24;;;;;;;;;1.50;1.50;;;;;-147.17;100.00;59696.56;5013090;28;8800;-68
2022/05/30 09:38:20;;;;;;;;;3.50;2.75;;;;;-147.17;100.00;59696.56;4985298;28;9095;-73
2022/05/30 09:40:56;;;;;;;;;2.00;2.00;;;;;-147.17;100.00;59696.56;5000456;28;8817;-74
2022/05/30 09:43:25;;;;;;;;;3.50;2.00;;;;;-147.17;100.00;59696.56;5003341;28;8803;-76
2022/05/30 09:45:51;;;;;;;;;3.00;2.25;;;;;-147.17;100.00;59696.56;5003373;28;8778;-76
2022/05/30 09:48:19;;;;;;;;;3.00;3.00;;;;;-147.17;100.00;59696.56;4999600;28;8788;-76
2022/05/30 09:50:51;;;;;;;;;1.75;1.75;;;;;-147.17;100.00;59696.56;5003443;28;8816;-74
2022/05/30 09:53:46;;;;;;;;;1.75;0.75;;;;;-147.17;100.00;59696.56;5000734;28;8781;-74
2022/05/30 09:56:15;;;;;;;;;1.75;1.75;;;;;-147.17;100.00;59696.56;5003221;28;8808;-74
2022/05/30 09:58:47;;;;;;;;;3.00;2.75;;;;;-147.17;100.00;59696.56;5001995;28;8781;-75
2022/05/30 10:01:23;;;;;;;;;3.00;3.00;;;;;-147.17;100.00;59696.56;5003031;28;9204;-76
2022/05/30 10:03:52;;;;;;;;;2.00;2.00;;;;;-147.17;100.00;59696.56;4997676;28;8801;-76
2022/05/30 10:06:26;;;;;;;;;3.00;3.00;;;;;-147.17;100.00;59696.56;5003253;28;8887;-76
2022/05/30 10:09:17;;;;;;;;;3.25;3.25;;;;;-147.17;100.00;59696.56;5002922;28;8789;-77
2022/05/30 10:11:43;;;;;;;;;2.25;2.25;;;;;-147.17;100.00;59696.56;5002725;28;8981;-76
2022/05/30 10:14:32;;;;;;;;;1.33;1.00;;;;;-147.17;100.00;59696.56;5006997;28;8980;-76
2022/05/30 10:17:09;;;;;;;;;3.75;2.25;;;;;-147.17;100.00;59696.56;5012798;28;8785;-77
2022/05/30 10:19:35;;;;;;;;;1.00;1.00;;;;;-147.17;100.00;59696.56;5008581;28;8801;-77
2022/05/30 10:28:39;;;;;;;;;2.25;1.50;;;;;-147.17;100.00;59696.56;5011666;28;8790;-77
2022/05/30 10:31:04;;;;;;;;;3.00;2.00;;;;;-147.17;100.00;59696.56;5012235;28;8793;-76
2022/05/30 10:34:02;;;;;;;;;1.00;1.00;;;;;-147.17;100.00;59696.56;5011387;28;8827;-78
2022/05/30 10:36:56;;;;;;;;;3.00;2.25;;;;;-147.17;100.00;59696.56;5011814;28;8808;-77
2022/05/30 10:39:27;;;;;;;;;1.75;1.75;;;;;-147.17;100.00;59696.56;5008824;28;8781;-77
2022/05/30 10:42:00;;;;;;;;;3.00;2.00;;;;;-147.17;100.00;59696.56;5002668;28;8801;-76
2022/05/30 10:44:35;;;;;;;;;2.25;2.25;;;;;-147.17;100.00;59696.56;5011298;28;8797;-76
2022/05/30 10:47:16;;;;;;;;;2.75;2.75;;;;;-147.17;100.00;59696.56;4992829;28;8805;-77
2022/05/30 10:50:04;;;;;;;;;2.00;1.75;;;;;-147.17;100.00;59696.56;5011282;28;8797;-77
2022/05/30 10:52:45;;;;;;;;;3.00;2.50;;;;;-147.17;100.00;59696.56;5010535;28;8790;-78
2022/05/30 10:55:17;;;;;;;;;2.75;2.75;;;;;-147.17;100.00;59696.56;5011104;28;8831;-77
2022/05/30 10:57:59;;;;;;;;;3.25;3.25;;;;;-147.17;100.00;59696.56;4992997;28;8907;-75
2022/05/30 11:00:47;;;;;;;;;1.50;1.50;;;;;-147.17;100.00;59696.56;5010970;28;8797;-76
2022/05/30 11:03:41;;;;;;;;;3.75;3.00;;;;;-147.17;100.00;59696.56;5004026;28;8832;-77
2022/05/30 11:06:17;;;;;;;;;1.75;1.75;;;;;-147.17;100.00;59696.56;5011484;28;8928;-77
2022/05/30 11:09:06;;;;;;;;;2.00;2.00;;;;;-147.17;100.00;59696.56;5010259;28;8892;-76
2022/05/30 11:11:39;;;;;;;;;1.75;1.75;;;;;-147.17;100.00;59696.56;5011450;28;8789;-76
2022/05/30 11:14:47;;;;;;;;;3.00;3.00;;;;;-147.17;100.00;59696.56;5009871;28;8789;-76
2022/05/30 11:17:27;;;;;;;;;4.67;4.67;;;;;-147.17;100.00;59696.56;5009302;28;8799;-77
2022/05/30 11:20:24;;;;;;;;;3.50;3.50;;;;;-147.17;100.00;59696.56;5010500;28;8965;-77
2022/05/30 11:22:52;;;;;;;;;3.50;3.00;;;;;-147.17;100.00;59696.56;5008859;28;8847;-77
2022/05/30 11:25:38;;;;;;;;;1.50;1.50;;;;;-147.17;100.00;59696.56;5011513;28;8873;-76
2022/05/30 11:28:23;;;;;;;;;3.75;3.00;;;;;-147.17;100.00;59696.56;5010281;28;9614;-76
2022/05/30 11:30:59;;;;;;;;;3.00;3.00;;;;;-147.17;100.00;59696.56;5009923;28;8835;-75
2022/05/30 11:33:37;;;;;;;;;2.50;2.00;;;;;-147.17;100.00;59696.56;5009561;28;8805;-75
2022/05/30 11:36:15;;;;;;;;;3.25;3.25;;;;;-147.17;100.00;59696.56;5010689;28;8797;-75
2022/05/30 11:39:16;;;;;;;;;3.50;3.50;;;;;-147.17;100.00;59696.56;5009809;28;8801;-76
2022/05/30 11:41:46;;;;;;;;;4.00;4.00;;;;;-147.17;100.00;59696.56;4987188;28;8828;-76
2022/05/30 11:44:39;;;;;;;;;2.33;2.33;;;;;-147.17;100.00;59696.56;5009879;28;8789;-77
2022/05/30 11:47:07;;;;;;;;;4.25;3.50;;;;;-147.17;100.00;59696.56;5010036;28;8867;-77
2022/05/30 11:49:44;;;;;;;;;4.00;3.75;;;;;-147.17;100.00;59696.56;5008919;28;8786;-77